Salt Lake City, UT

6:39 PM MDT en Julio 25, 2016 (GMT -0600)
Central Ninth | | Change Station

Alt 4235 ft 40.75 °N, 111.89 °W | Updated 2 minutes ago

Scattered Clouds
Nubes dispersas
98.8 ° F
Sensación térmica 94 ° F
N
3.7
Viento Variable Viento desde Oeste

Hoy
Alta -- | Baja -- ° F
--% Posibilidad de precipitaciones
Ayer
Alta -- | Baja -- ° F
Precip. -- pul
Presión 29.78 pul
Visibilidad 10.0 Millas
Nubes Baja 4000 ft
Baja 10000 ft
Baja 16000 ft
Nubes dispersas 22000 ft
Índice de calor 94 ° F
Punto de rocío 37 ° F
Humedad 12%
Precipitaciones 0.00 pul
Espesor de la nieve No disponible.
6:18 AM 8:49 PM
Gibosa menguante, 61% visible
METAR KSLC 252354Z COR 36004KT 10SM FEW040 FEW100 FEW160 SCT220 38/M01 A2999 RMK AO2 SLP084 FU FEW040 FU DSNT N CB DSNT E AND SE T03781011 10383 20339 56008
Presión 29.78 pul
Visibilidad 10.0 Millas
Nubes Baja 4000 ft
Baja 10000 ft
Baja 16000 ft
Nubes dispersas 22000 ft
Índice de calor 94 ° F
Punto de rocío 37 ° F
Humedad 12%
Precipitaciones 0.00 pul
Espesor de la nieve No disponible.
6:18 AM 8:49 PM
Gibosa menguante, 61% visible
METAR KSLC 252354Z COR 36004KT 10SM FEW040 FEW100 FEW160 SCT220 38/M01 A2999 RMK AO2 SLP084 FU FEW040 FU DSNT N CB DSNT E AND SE T03781011 10383 20339 56008

10-Day Weather Forecast

Almanac

Astronomía

Jul. 25, 2016 Salida Puesta
Hora real
Crepúsculo civil
Crepúsculo náutico
Crepúsculo astronómico
Luna
Horas de luz
Horas de luz
Tomorrow will be .
, % of the Moon is Illuminated

Extremos de hoy

Máximos del estado Bajos del estado

Community

WunderPhotos

Upload Photos

1,927,479 ¡fotos cargadas!

WunderBlog® & News

Nearby

Calidad del aire

  Calidad del aire Índice AQ Contaminante
Not available.

Grosos de nieve

Estación Profundido Altura

Actividad de terremotos

Ciudad Distance Mag. Tiempo y dato
Magnitud mínima muestra es 2,5.

Temperaturas de aguas costeras

Lugar Temperatura

Stations

Estaciones meteorológicas cercanas

Ubicación de la estación Temp. Vientos helados Punto de rocío Humedad Viento Precip. Alt Actualizado Tipo
                   

Watches & Warnings

There are currently no watches in effect.